createdAt,value
2022-10-22T00:00:36.098Z,6.55
2022-10-22T00:03:05.920Z,6.57
2022-10-22T00:05:33.883Z,6.60
2022-10-22T00:08:01.399Z,6.61
2022-10-22T00:10:29.490Z,6.63
2022-10-22T00:12:57.275Z,6.66
2022-10-22T00:15:25.316Z,6.66
2022-10-22T00:17:53.239Z,6.67
2022-10-22T00:20:20.954Z,6.66
2022-10-22T00:22:48.986Z,6.67
2022-10-22T00:25:17.078Z,6.66
2022-10-22T00:27:45.022Z,6.66
2022-10-22T00:30:13.276Z,6.66
2022-10-22T00:32:41.220Z,6.63
2022-10-22T00:35:09.276Z,6.59
2022-10-22T00:37:37.183Z,6.56
2022-10-22T00:40:05.924Z,6.53
2022-10-22T00:42:33.424Z,6.50
2022-10-22T00:45:21.231Z,6.47
2022-10-22T00:47:57.537Z,6.42
2022-10-22T00:50:42.775Z,6.39
2022-10-22T00:53:18.820Z,6.37
2022-10-22T00:55:51.250Z,6.34
2022-10-22T00:58:23.450Z,6.33
2022-10-22T01:00:51.517Z,6.32
2022-10-22T01:03:19.399Z,6.30
2022-10-22T01:05:57.306Z,6.29
2022-10-22T01:08:51.544Z,6.27
2022-10-22T01:11:48.840Z,6.25
2022-10-22T01:14:39.810Z,6.24
2022-10-22T01:17:34.781Z,6.25
2022-10-22T01:20:40.964Z,6.24
2022-10-22T01:23:25.681Z,6.23
2022-10-22T01:26:16.935Z,6.23
2022-10-22T01:29:16.649Z,6.23
2022-10-22T01:31:55.248Z,6.22
2022-10-22T01:34:24.651Z,6.18
2022-10-22T01:36:54.020Z,6.14
2022-10-22T01:39:23.596Z,6.11
2022-10-22T01:41:55.454Z,6.08
2022-10-22T01:47:33.319Z,6.04
2022-10-22T01:50:23.684Z,6.01
2022-10-22T01:53:29.802Z,6.00
2022-10-22T01:56:17.610Z,5.99
2022-10-22T01:59:05.532Z,5.98
2022-10-22T02:01:41.344Z,5.96
2022-10-22T02:04:35.414Z,5.96
2022-10-22T02:07:06.299Z,5.98
2022-10-22T02:09:35.602Z,6.01
2022-10-22T02:12:06.725Z,6.03
2022-10-22T02:14:37.579Z,6.08
2022-10-22T02:17:09.243Z,6.09
2022-10-22T02:19:45.401Z,6.11
2022-10-22T02:22:13.315Z,6.14
2022-10-22T02:24:41.254Z,6.18
2022-10-22T02:27:31.834Z,6.20
2022-10-22T02:30:13.843Z,6.23
2022-10-22T02:33:11.850Z,6.21
2022-10-22T02:35:41.700Z,6.24
2022-10-22T02:38:11.637Z,6.24
2022-10-22T02:40:39.319Z,6.22
2022-10-22T02:43:07.108Z,6.25
2022-10-22T02:45:35.575Z,6.26
2022-10-22T02:48:03.962Z,6.28
2022-10-22T02:50:32.074Z,6.30
2022-10-22T02:52:59.893Z,6.32
2022-10-22T02:55:27.752Z,6.32
2022-10-22T02:57:55.484Z,6.34
2022-10-22T03:00:23.439Z,6.36
2022-10-22T03:02:51.160Z,6.38
2022-10-22T03:05:18.886Z,6.38
2022-10-22T03:07:46.718Z,6.39
2022-10-22T03:10:14.619Z,6.41
2022-10-22T03:12:42.440Z,6.42
2022-10-22T03:15:10.784Z,6.42
2022-10-22T03:17:39.058Z,6.43
2022-10-22T03:20:08.404Z,6.43
2022-10-22T03:22:40.456Z,6.45
2022-10-22T03:25:12.318Z,6.43
2022-10-22T03:27:42.107Z,6.38
2022-10-22T03:30:11.526Z,6.38
2022-10-22T03:32:39.203Z,6.38
2022-10-22T03:35:07.878Z,6.39
2022-10-22T03:37:36.856Z,6.42
2022-10-22T03:40:07.865Z,6.45
2022-10-22T03:42:35.730Z,6.49
2022-10-22T03:45:03.934Z,6.52
2022-10-22T03:47:31.853Z,6.56
2022-10-22T03:49:59.686Z,6.59
2022-10-22T03:52:27.547Z,6.61
2022-10-22T03:54:55.343Z,6.66
2022-10-22T03:57:23.256Z,6.68
2022-10-22T03:59:51.117Z,6.71
2022-10-22T04:02:19.118Z,6.72
2022-10-22T04:04:46.926Z,6.73
2022-10-22T04:07:14.798Z,6.75
2022-10-22T04:09:42.646Z,6.77
2022-10-22T04:12:10.424Z,6.78
2022-10-22T04:14:38.136Z,6.81
2022-10-22T04:17:05.574Z,6.84
2022-10-22T04:19:33.505Z,6.86
2022-10-22T04:22:01.596Z,6.89
2022-10-22T04:24:31.393Z,6.92
2022-10-22T04:26:59.264Z,6.94
2022-10-22T04:29:27.438Z,6.97
2022-10-22T04:31:55.390Z,6.98
2022-10-22T04:34:25.291Z,6.99
2022-10-22T04:36:53.276Z,7.01
2022-10-22T04:39:21.202Z,7.02
2022-10-22T04:41:50.967Z,7.02
2022-10-22T04:44:20.852Z,7.01
2022-10-22T04:46:53.924Z,7.02
2022-10-22T04:49:22.351Z,7.02
2022-10-22T04:51:50.450Z,7.04
2022-10-22T04:54:18.377Z,7.05
2022-10-22T04:56:46.407Z,7.06
2022-10-22T04:59:14.544Z,7.08
2022-10-22T05:01:48.041Z,7.12
2022-10-22T05:04:21.470Z,7.14
2022-10-22T05:06:53.440Z,7.18
2022-10-22T05:09:21.321Z,7.23
2022-10-22T05:11:51.460Z,7.27
2022-10-22T05:14:24.592Z,7.29
2022-10-22T05:16:52.712Z,7.33
2022-10-22T05:19:30.260Z,7.37
2022-10-22T05:22:00.817Z,7.39
2022-10-22T05:24:31.474Z,7.43
2022-10-22T05:27:00.450Z,7.45
2022-10-22T05:29:28.315Z,7.48
2022-10-22T05:31:56.629Z,7.50
2022-10-22T05:34:24.672Z,7.52
2022-10-22T05:36:52.693Z,7.53
2022-10-22T05:39:20.548Z,7.56
2022-10-22T05:41:48.174Z,7.59
2022-10-22T05:44:16.163Z,7.61
2022-10-22T05:46:44.831Z,7.62
2022-10-22T05:49:15.465Z,7.67
2022-10-22T05:51:43.120Z,7.70
2022-10-22T05:54:20.189Z,7.74
2022-10-22T05:56:48.421Z,7.81
2022-10-22T05:59:30.030Z,7.86
2022-10-22T06:02:04.394Z,7.91
2022-10-22T06:04:43.610Z,8.00
2022-10-22T06:07:11.234Z,8.26
2022-10-22T06:09:39.511Z,8.26
2022-10-22T06:12:09.197Z,8.50
2022-10-22T06:14:40.339Z,8.69
2022-10-22T06:17:11.177Z,8.91
2022-10-22T06:19:38.814Z,9.23
2022-10-22T06:22:06.349Z,9.50
2022-10-22T06:24:34.266Z,9.70
2022-10-22T06:27:02.402Z,9.77
2022-10-22T06:29:29.809Z,9.82
2022-10-22T06:31:57.192Z,9.86
2022-10-22T06:34:24.858Z,9.86
2022-10-22T06:36:52.684Z,9.90
2022-10-22T06:39:20.373Z,10.04
2022-10-22T06:41:48.621Z,10.20
2022-10-22T06:44:22.042Z,10.32
2022-10-22T06:46:51.859Z,10.35
2022-10-22T06:49:21.400Z,10.42
2022-10-22T06:51:53.625Z,10.62
2022-10-22T06:54:22.590Z,10.95
2022-10-22T06:56:50.314Z,11.33
2022-10-22T06:59:18.082Z,11.67
2022-10-22T07:01:45.978Z,12.06
2022-10-22T07:04:13.860Z,12.49
2022-10-22T07:06:46.707Z,12.87
2022-10-22T07:11:53.562Z,13.47
2022-10-22T07:14:21.104Z,13.69
2022-10-22T07:16:49.539Z,13.85
2022-10-22T07:19:17.141Z,14.08
2022-10-22T07:21:44.904Z,14.23
2022-10-22T07:24:12.632Z,14.31
2022-10-22T07:26:40.216Z,14.48
2022-10-22T07:29:17.811Z,14.61
2022-10-22T07:31:45.870Z,14.76
2022-10-22T07:36:46.218Z,15.04
2022-10-22T07:39:14.010Z,15.24
2022-10-22T07:41:42.103Z,15.37
2022-10-22T07:47:18.979Z,15.79
2022-10-22T07:49:47.364Z,16.00
2022-10-22T07:52:15.497Z,16.20
2022-10-22T07:54:47.304Z,16.38
2022-10-22T07:57:29.975Z,16.56
2022-10-22T08:00:09.075Z,16.62
2022-10-22T08:02:42.697Z,16.69
2022-10-22T08:05:14.748Z,16.75
2022-10-22T08:07:43.338Z,16.91
2022-10-22T08:10:12.473Z,17.01
2022-10-22T08:12:41.987Z,16.99
2022-10-22T08:15:11.026Z,17.10
2022-10-22T08:17:39.705Z,17.28
2022-10-22T08:20:09.244Z,17.42
2022-10-22T08:22:37.395Z,17.51
2022-10-22T08:25:06.329Z,17.72
2022-10-22T08:27:33.906Z,17.89
2022-10-22T08:30:02.128Z,18.06
2022-10-22T08:32:35.857Z,18.24
2022-10-22T08:35:04.565Z,18.41
2022-10-22T08:37:32.627Z,18.59
2022-10-22T08:40:00.822Z,18.81
2022-10-22T08:43:08.605Z,19.07
2022-10-22T08:46:12.236Z,19.25
2022-10-22T08:48:45.156Z,19.25
2022-10-22T08:51:20.216Z,19.16
2022-10-22T08:54:08.055Z,19.20
2022-10-22T08:56:37.078Z,19.38
2022-10-22T08:59:15.122Z,19.58
2022-10-22T09:01:49.260Z,19.63
2022-10-22T09:04:25.424Z,19.68
2022-10-22T09:06:55.694Z,19.70
2022-10-22T09:09:27.813Z,19.63
2022-10-22T09:11:57.851Z,19.70
2022-10-22T09:14:26.492Z,19.83
2022-10-22T09:17:33.448Z,20.00
2022-10-22T09:20:17.178Z,20.14
2022-10-22T09:22:59.159Z,20.26
2022-10-22T09:25:31.678Z,20.40
2022-10-22T09:27:59.289Z,20.56
2022-10-22T09:30:31.413Z,20.52
2022-10-22T09:33:25.314Z,20.62
2022-10-22T09:36:06.266Z,20.71
2022-10-22T09:38:43.070Z,20.90
2022-10-22T09:41:10.884Z,21.05
2022-10-22T09:43:38.509Z,21.13
2022-10-22T09:46:19.771Z,21.19
2022-10-22T09:49:05.385Z,21.20
2022-10-22T09:51:41.295Z,21.16
2022-10-22T09:54:21.966Z,21.15
2022-10-22T09:57:05.699Z,20.93
2022-10-22T09:59:37.507Z,20.82
2022-10-22T10:02:20.300Z,20.55
2022-10-22T10:05:03.088Z,20.35
2022-10-22T10:07:36.848Z,20.24
2022-10-22T10:10:12.849Z,20.08
2022-10-22T10:12:48.688Z,19.94
2022-10-22T10:15:36.625Z,19.98
2022-10-22T10:18:24.371Z,20.06
2022-10-22T10:21:29.053Z,20.10
2022-10-22T10:24:27.630Z,20.27
2022-10-22T10:27:09.022Z,20.51
2022-10-22T10:29:45.267Z,20.75
2022-10-22T10:32:23.680Z,20.90
2022-10-22T10:35:05.173Z,21.10
2022-10-22T10:37:40.812Z,21.32
2022-10-22T10:40:25.652Z,21.57
2022-10-22T10:43:31.450Z,21.78
2022-10-22T10:46:10.666Z,22.00
2022-10-22T10:48:57.988Z,21.96
2022-10-22T10:51:39.629Z,21.72
2022-10-22T10:57:34.569Z,21.60
2022-10-22T11:00:13.339Z,21.25
2022-10-22T11:03:22.457Z,20.97
2022-10-22T11:06:00.196Z,20.83
2022-10-22T11:08:49.325Z,20.63
2022-10-22T11:11:40.222Z,20.40
2022-10-22T11:14:34.171Z,20.35
2022-10-22T11:17:10.296Z,20.21
2022-10-22T11:19:51.675Z,20.04
2022-10-22T11:22:25.823Z,20.16
2022-10-22T11:25:01.905Z,20.45
2022-10-22T11:28:06.769Z,20.72
2022-10-22T11:30:35.800Z,20.98
2022-10-22T11:33:12.773Z,21.19
2022-10-22T11:35:43.924Z,21.21
2022-10-22T11:38:20.665Z,21.27
2022-10-22T11:41:04.717Z,21.32
2022-10-22T11:43:55.138Z,21.39
2022-10-22T11:46:27.444Z,21.49
2022-10-22T11:49:15.078Z,21.54
2022-10-22T11:51:48.242Z,21.50
2022-10-22T11:54:40.625Z,21.53
2022-10-22T11:57:20.076Z,21.60
2022-10-22T11:59:59.908Z,21.67
2022-10-22T12:02:44.845Z,21.79
2022-10-22T12:05:29.770Z,21.84
2022-10-22T12:08:02.682Z,21.91
2022-10-22T12:11:07.658Z,21.90
2022-10-22T12:14:23.611Z,21.83
2022-10-22T12:16:57.814Z,21.75
2022-10-22T12:19:43.055Z,21.70
2022-10-22T12:22:22.054Z,21.54
2022-10-22T12:24:54.746Z,21.41
2022-10-22T12:27:26.195Z,21.38
2022-10-22T12:29:57.798Z,21.29
2022-10-22T12:32:40.330Z,21.16
2022-10-22T12:35:19.413Z,21.07
2022-10-22T12:37:56.434Z,20.96
2022-10-22T12:40:30.376Z,20.94
2022-10-22T12:43:04.660Z,20.93
2022-10-22T12:45:34.966Z,20.80
2022-10-22T12:48:08.531Z,20.66
2022-10-22T12:50:40.416Z,20.54
2022-10-22T12:53:33.733Z,20.52
2022-10-22T12:56:05.867Z,20.51
2022-10-22T12:58:41.181Z,20.45
2022-10-22T13:01:12.478Z,20.41
2022-10-22T13:03:50.280Z,20.27
2022-10-22T13:06:25.412Z,20.14
2022-10-22T13:09:01.312Z,20.02
2022-10-22T13:11:50.291Z,19.92
2022-10-22T13:14:28.512Z,19.83
2022-10-22T13:17:06.228Z,19.74
2022-10-22T13:19:57.959Z,19.70
2022-10-22T13:22:38.800Z,19.68
2022-10-22T13:25:21.036Z,19.66
2022-10-22T13:28:00.154Z,19.65
2022-10-22T13:30:32.997Z,19.60
2022-10-22T13:33:09.330Z,19.56
2022-10-22T13:35:38.379Z,19.51
2022-10-22T13:38:18.795Z,19.48
2022-10-22T13:40:47.537Z,19.46
2022-10-22T13:43:16.673Z,19.42
2022-10-22T13:45:47.596Z,19.41
2022-10-22T13:48:20.803Z,19.39
2022-10-22T13:50:50.787Z,19.39
2022-10-22T13:53:25.463Z,19.36
2022-10-22T13:55:53.451Z,19.33
2022-10-22T13:58:26.489Z,19.30
2022-10-22T14:01:01.955Z,19.24
2022-10-22T14:03:33.714Z,19.20
2022-10-22T14:06:02.619Z,19.14
2022-10-22T14:08:30.401Z,19.10
2022-10-22T14:10:58.071Z,19.03
2022-10-22T14:13:27.201Z,18.99
2022-10-22T14:15:55.152Z,18.94
2022-10-22T14:18:30.847Z,18.88
2022-10-22T14:21:06.877Z,18.81
2022-10-22T14:23:36.124Z,18.73
2022-10-22T14:26:04.604Z,18.67
2022-10-22T14:28:40.984Z,18.57
2022-10-22T14:31:02.833Z,18.47
2022-10-22T14:33:32.760Z,18.38
2022-10-22T14:36:00.977Z,18.29
2022-10-22T14:38:29.311Z,18.21
2022-10-22T14:40:59.337Z,18.14
2022-10-22T14:43:30.670Z,18.07
2022-10-22T14:46:01.896Z,17.99
2022-10-22T14:48:29.519Z,17.94
2022-10-22T14:50:58.205Z,17.88
2022-10-22T14:53:25.928Z,17.82
2022-10-22T14:55:58.792Z,17.73
2022-10-22T14:58:28.986Z,17.62
2022-10-22T15:01:04.212Z,17.53
2022-10-22T15:03:32.338Z,17.44
2022-10-22T15:06:00.081Z,17.35
2022-10-22T15:08:28.427Z,17.26
2022-10-22T15:11:06.024Z,17.18
2022-10-22T15:13:34.634Z,17.10
2022-10-22T15:16:07.875Z,17.02
2022-10-22T15:18:36.238Z,16.95
2022-10-22T15:21:08.284Z,16.87
2022-10-22T15:23:38.119Z,16.80
2022-10-22T15:26:11.125Z,16.73
2022-10-22T15:28:40.462Z,16.64
2022-10-22T15:31:11.877Z,16.56
2022-10-22T15:33:42.455Z,16.48
2022-10-22T15:36:16.130Z,16.40
2022-10-22T15:38:43.963Z,16.27
2022-10-22T15:41:12.866Z,16.12
2022-10-22T15:43:40.753Z,16.04
2022-10-22T15:46:18.173Z,15.96
2022-10-22T15:48:46.335Z,15.87
2022-10-22T15:51:17.209Z,15.77
2022-10-22T15:53:51.315Z,15.70
2022-10-22T15:56:19.354Z,15.62
2022-10-22T15:58:47.586Z,15.53
2022-10-22T16:01:15.485Z,15.46
2022-10-22T16:03:43.032Z,15.39
2022-10-22T16:06:11.248Z,15.31
2022-10-22T16:08:45.474Z,15.24
2022-10-22T16:11:14.735Z,15.17
2022-10-22T16:13:42.769Z,15.13
2022-10-22T16:16:11.735Z,15.08
2022-10-22T16:18:39.568Z,15.03
2022-10-22T16:21:19.827Z,14.99
2022-10-22T16:23:48.828Z,14.95
2022-10-22T16:26:17.932Z,14.91
2022-10-22T16:28:48.667Z,14.87
2022-10-22T16:31:19.687Z,14.80
2022-10-22T16:33:50.019Z,14.76
2022-10-22T16:36:20.057Z,14.71
2022-10-22T16:38:49.260Z,14.65
2022-10-22T16:44:21.088Z,14.59
2022-10-22T16:46:48.571Z,14.51
2022-10-22T16:49:16.482Z,14.50
2022-10-22T16:51:44.577Z,14.47
2022-10-22T16:54:13.605Z,14.44
2022-10-22T16:56:41.081Z,14.42
2022-10-22T16:59:09.502Z,14.41
2022-10-22T17:01:40.991Z,14.39
2022-10-22T17:04:06.405Z,14.37
2022-10-22T17:06:34.149Z,14.36
2022-10-22T17:09:01.706Z,14.34
2022-10-22T17:11:31.390Z,14.34
2022-10-22T17:13:58.940Z,14.35
2022-10-22T17:16:26.649Z,14.35
2022-10-22T17:18:55.936Z,14.34
2022-10-22T17:21:24.901Z,14.33
2022-10-22T17:23:57.925Z,14.33
2022-10-22T17:26:28.429Z,14.32
2022-10-22T17:28:55.956Z,14.32
2022-10-22T17:31:28.424Z,14.32
2022-10-22T17:33:57.480Z,14.32
2022-10-22T17:36:28.356Z,14.29
2022-10-22T17:38:58.508Z,14.28
2022-10-22T17:41:29.992Z,14.24
2022-10-22T17:44:02.703Z,14.22
2022-10-22T17:46:31.923Z,14.18
2022-10-22T17:49:03.854Z,14.16
2022-10-22T17:51:32.188Z,14.13
2022-10-22T17:54:00.580Z,14.10
2022-10-22T17:56:29.837Z,14.08
2022-10-22T17:59:00.539Z,14.06
2022-10-22T18:01:31.668Z,14.04
2022-10-22T18:04:03.346Z,14.01
2022-10-22T18:06:32.372Z,14.01
2022-10-22T18:09:05.511Z,13.99
2022-10-22T18:11:40.882Z,13.98
2022-10-22T18:14:09.097Z,13.96
2022-10-22T18:16:38.057Z,13.95
2022-10-22T18:19:05.689Z,13.94
2022-10-22T18:21:33.993Z,13.92
2022-10-22T18:24:01.814Z,13.92
2022-10-22T18:26:29.738Z,13.93
2022-10-22T18:28:58.657Z,13.93
2022-10-22T18:31:28.344Z,13.95
2022-10-22T18:33:57.129Z,13.94
2022-10-22T18:36:27.883Z,13.92
2022-10-22T18:38:59.516Z,13.89
2022-10-22T18:41:29.488Z,13.87
2022-10-22T18:44:03.086Z,13.86
2022-10-22T18:46:34.093Z,13.84
2022-10-22T18:49:01.800Z,13.82
2022-10-22T18:51:32.416Z,13.82
2022-10-22T18:54:22.204Z,13.80
2022-10-22T18:56:30.453Z,13.79
2022-10-22T18:58:57.919Z,13.77
2022-10-22T19:01:29.973Z,13.77
2022-10-22T19:03:57.925Z,13.75
2022-10-22T19:06:34.344Z,13.74
2022-10-22T19:09:00.852Z,13.72
2022-10-22T19:11:28.914Z,13.69
2022-10-22T19:13:57.085Z,13.68
2022-10-22T19:16:26.272Z,13.66
2022-10-22T19:19:04.296Z,13.64
2022-10-22T19:21:32.859Z,13.62
2022-10-22T19:24:01.694Z,13.59
2022-10-22T19:26:31.226Z,13.57
2022-10-22T19:28:59.967Z,13.56
2022-10-22T19:31:30.553Z,13.53
2022-10-22T19:34:00.699Z,13.51
2022-10-22T19:36:29.632Z,13.46
2022-10-22T19:38:58.244Z,13.44
2022-10-22T19:41:28.725Z,13.41
2022-10-22T19:43:57.557Z,13.38
2022-10-22T19:46:27.565Z,13.39
2022-10-22T19:48:57.605Z,13.38
2022-10-22T19:51:31.340Z,13.34
2022-10-22T19:54:07.272Z,13.32
2022-10-22T19:56:39.167Z,13.30
2022-10-22T19:59:07.573Z,13.31
2022-10-22T20:01:35.166Z,13.33
2022-10-22T20:04:03.140Z,13.33
2022-10-22T20:06:31.012Z,13.34
2022-10-22T20:08:58.735Z,13.33
2022-10-22T20:11:30.092Z,13.31
2022-10-22T20:13:58.947Z,13.32
2022-10-22T20:16:30.337Z,13.32
2022-10-22T20:19:05.566Z,13.32
2022-10-22T20:21:35.232Z,13.31
2022-10-22T20:24:03.193Z,13.31
2022-10-22T20:26:33.043Z,13.31
2022-10-22T20:29:00.563Z,13.31
2022-10-22T20:31:29.620Z,13.32
2022-10-22T20:33:59.210Z,13.32
2022-10-22T20:36:29.062Z,13.31
2022-10-22T20:39:05.196Z,13.30
2022-10-22T20:41:34.207Z,13.29
2022-10-22T20:44:01.853Z,13.26
2022-10-22T20:46:32.854Z,13.25
2022-10-22T20:49:07.546Z,13.21
2022-10-22T20:51:36.818Z,13.20
2022-10-22T20:54:06.836Z,13.17
2022-10-22T20:56:39.397Z,13.15
2022-10-22T20:59:10.314Z,13.14
2022-10-22T21:01:51.547Z,13.11
2022-10-22T21:04:21.152Z,13.10
2022-10-22T21:06:49.865Z,13.10
2022-10-22T21:09:17.662Z,13.09
2022-10-22T21:11:45.926Z,13.08
2022-10-22T21:14:16.464Z,13.07
2022-10-22T21:16:48.579Z,13.06
2022-10-22T21:19:18.216Z,13.08
2022-10-22T21:21:45.842Z,13.07
2022-10-22T21:24:13.816Z,13.04
2022-10-22T21:26:43.151Z,13.02
2022-10-22T21:29:12.697Z,13.01
2022-10-22T21:31:40.486Z,13.00
2022-10-22T21:34:08.173Z,13.00
2022-10-22T21:36:35.573Z,12.99
2022-10-22T21:39:03.446Z,13.02
2022-10-22T21:41:31.253Z,13.03
2022-10-22T21:43:59.745Z,13.04
2022-10-22T21:46:28.920Z,13.07
2022-10-22T21:49:03.118Z,13.08
2022-10-22T21:51:35.263Z,13.09
2022-10-22T21:54:02.893Z,13.07
2022-10-22T21:56:34.509Z,13.01
2022-10-22T21:59:04.974Z,12.94
2022-10-22T22:01:33.830Z,12.91
2022-10-22T22:04:01.804Z,12.92
2022-10-22T22:06:33.537Z,12.94
2022-10-22T22:09:03.484Z,12.93
2022-10-22T22:11:31.975Z,12.95
2022-10-22T22:14:00.417Z,12.95
2022-10-22T22:16:31.273Z,12.94
2022-10-22T22:19:01.571Z,12.93
2022-10-22T22:21:29.748Z,12.93
2022-10-22T22:23:58.107Z,12.90
2022-10-22T22:26:29.760Z,12.89
2022-10-22T22:28:59.344Z,12.87
2022-10-22T22:31:32.845Z,12.84
2022-10-22T22:34:07.894Z,12.84
2022-10-22T22:36:39.552Z,12.82
2022-10-22T22:39:10.812Z,12.81
2022-10-22T22:41:41.960Z,12.81
2022-10-22T22:44:10.071Z,12.80
2022-10-22T22:46:37.989Z,12.80
2022-10-22T22:49:05.863Z,12.79
2022-10-22T22:51:33.552Z,12.80
2022-10-22T22:54:01.897Z,12.79
2022-10-22T22:56:32.972Z,12.78
2022-10-22T22:59:00.825Z,12.76
2022-10-22T23:01:32.584Z,12.75
2022-10-22T23:04:18.142Z,12.74
2022-10-22T23:06:46.104Z,12.73
2022-10-22T23:09:15.646Z,12.71
2022-10-22T23:11:48.756Z,12.69
2022-10-22T23:14:20.652Z,12.68
2022-10-22T23:16:54.408Z,12.62
2022-10-22T23:19:25.689Z,12.55
2022-10-22T23:21:55.701Z,12.50
2022-10-22T23:24:27.825Z,12.47
2022-10-22T23:26:59.898Z,12.45
2022-10-22T23:29:31.003Z,12.44
2022-10-22T23:32:01.737Z,12.43
2022-10-22T23:34:31.036Z,12.41
2022-10-22T23:36:59.094Z,12.41
2022-10-22T23:39:28.966Z,12.39
2022-10-22T23:41:57.667Z,12.39
2022-10-22T23:44:25.610Z,12.40
2022-10-22T23:46:53.536Z,12.40
2022-10-22T23:49:21.562Z,12.40
2022-10-22T23:51:52.115Z,12.40
2022-10-22T23:54:19.851Z,12.39
2022-10-22T23:56:47.347Z,12.37
2022-10-22T23:59:15.468Z,12.37
